Time;durP1;ratioP1;P1;durP2;ratioP2;P2;SDS_P1;SDS_P2;PMS_P1;PMS_P2;Temp;Humidity;BMP_temperature;BMP_pressure;BME280_temperature;BME280_humidity;BME280_pressure;Samples;Min_cycle;Max_cycle;Signal;HPM_P1;HPM_P2
2021/11/15 15:00:58;;;;;;;;;;;3.50;99.90;;;;;;5153386;27;19915;-91
2021/11/15 15:15:19;;;;;;;;;;;3.30;99.90;;;;;;5087752;28;19913;-95
2021/11/15 15:17:47;;;;;;;;;;;3.20;99.90;;;;;;5082271;28;19913;-96
2021/11/15 15:20:18;;;;;;;;;;;3.30;99.90;;;;;;5034102;28;19909;-96
2021/11/15 15:22:44;;;;;;;;;;;3.30;99.90;;;;;;5033312;28;19955;-96
2021/11/15 15:25:09;;;;;;;;;;;3.40;99.90;;;;;;5034766;28;19909;-96
2021/11/15 15:27:35;;;;;;;;;;;3.40;99.90;;;;;;5031373;28;20358;-96
2021/11/15 15:30:01;;;;;;;;;;;3.40;99.90;;;;;;5032866;28;19917;-96
2021/11/15 15:32:26;;;;;;;;;;;3.40;99.90;;;;;;5045705;28;19916;-95
2021/11/15 15:34:52;;;;;;;;;;;3.40;99.90;;;;;;5037996;28;19913;-96
2021/11/15 15:37:17;;;;;;;;;;;3.40;99.50;;;;;;5050249;28;19920;-96
2021/11/15 15:39:43;;;;;;;;;;;3.30;99.80;;;;;;5045105;28;20289;-96
2021/11/15 15:42:09;;;;;;;;;;;3.30;99.90;;;;;;5044730;28;20002;-94
2021/11/15 15:44:36;;;;;;;;;;;3.30;99.90;;;;;;5031921;28;20273;-96
2021/11/15 15:47:03;;;;;;;;;;;3.30;99.90;;;;;;5036197;28;19916;-96
2021/11/15 15:49:31;;;;;;;;;;;3.30;99.90;;;;;;5035828;28;19913;-94
2021/11/15 16:41:19;;;;;;;;;;;1.90;99.90;;;;;;5117982;27;19912;-96
2021/11/15 16:43:44;;;;;;;;;;;1.90;99.90;;;;;;5112030;28;19944;-96
2021/11/15 16:46:11;;;;;;;;;;;1.90;99.90;;;;;;5112508;28;19959;-96
2021/11/15 16:48:36;;;;;;;;;;;2.00;99.90;;;;;;5112119;28;19911;-96
2021/11/15 16:51:02;;;;;;;;;;;2.10;99.90;;;;;;5115709;28;19908;-96
2021/11/15 16:53:30;;;;;;;;;;;2.10;99.80;;;;;;5141805;22;19908;-96
2021/11/15 16:56:01;;;;;;;;;;;2.20;98.60;;;;;;5098841;27;19913;-93
2021/11/15 16:58:27;;;;;;;;;;;2.20;99.10;;;;;;5088091;28;19924;-93
2021/11/15 17:00:53;;;;;;;;;;;2.30;98.20;;;;;;5090989;28;19908;-93
2021/11/15 17:03:21;;;;;;;;;;;2.30;97.90;;;;;;5089703;28;19915;-94
2021/11/15 17:05:51;;;;;;;;;;;2.40;97.60;;;;;;5087149;28;20382;-94
2021/11/15 17:08:32;;;;;;;;;;;2.40;97.20;;;;;;5050364;28;19925;-96
2021/11/15 17:11:03;;;;;;;;;;;2.50;96.90;;;;;;5035620;28;20285;-94
2021/11/15 17:16:39;;;;;;;;;;;2.50;94.80;;;;;;5068616;28;19925;-96
2021/11/15 17:21:52;;;;;;;;;;;2.50;95.00;;;;;;5119133;22;19982;-96
2021/11/15 17:24:19;;;;;;;;;;;2.50;95.50;;;;;;5086050;28;19931;-96
2021/11/15 17:26:45;;;;;;;;;;;2.50;95.00;;;;;;5086095;28;19913;-96
2021/11/15 17:29:11;;;;;;;;;;;2.50;94.70;;;;;;5073214;28;20369;-95
2021/11/15 17:31:36;;;;;;;;;;;2.50;94.00;;;;;;5064421;28;19963;-94
2021/11/15 17:34:02;;;;;;;;;;;2.50;92.30;;;;;;5065319;28;19908;-95
2021/11/15 17:36:28;;;;;;;;;;;2.50;92.50;;;;;;5077274;28;20284;-96
2021/11/15 17:38:55;;;;;;;;;;;2.40;91.70;;;;;;5071653;28;19995;-94
2021/11/15 17:41:21;;;;;;;;;;;2.40;91.50;;;;;;5066370;28;19921;-93
2021/11/15 17:43:47;;;;;;;;;;;2.40;90.60;;;;;;5058546;28;19915;-95
2021/11/15 17:46:13;;;;;;;;;;;2.40;90.50;;;;;;5069408;28;19931;-95
2021/11/15 17:48:39;;;;;;;;;;;2.30;90.60;;;;;;5069619;28;19913;-95
2021/11/15 17:51:11;;;;;;;;;;;2.30;90.80;;;;;;5060854;28;19935;-94
2021/11/15 17:54:00;;;;;;;;;;;2.30;89.70;;;;;;5056076;28;19909;-93
2021/11/15 17:56:29;;;;;;;;;;;2.30;89.20;;;;;;5036944;28;19916;-95
2021/11/15 18:01:22;;;;;;;;;;;2.30;88.80;;;;;;5058757;28;20003;-95
2021/11/15 18:03:48;;;;;;;;;;;2.20;88.10;;;;;;5047699;28;19909;-95
2021/11/15 18:06:14;;;;;;;;;;;2.20;88.00;;;;;;5050006;28;19909;-96
2021/11/15 18:08:40;;;;;;;;;;;2.20;87.80;;;;;;5060804;28;19909;-95
2021/11/15 18:11:06;;;;;;;;;;;2.20;88.50;;;;;;5060009;28;19912;-96
2021/11/15 18:13:34;;;;;;;;;;;2.10;87.50;;;;;;5058915;28;19909;-95
2021/11/15 18:16:03;;;;;;;;;;;2.10;88.40;;;;;;5057758;28;19909;-94
2021/11/15 18:18:38;;;;;;;;;;;2.20;89.80;;;;;;5046199;28;19980;-95
2021/11/15 18:21:04;;;;;;;;;;;2.20;89.30;;;;;;5050988;28;19970;-95
2021/11/15 18:23:29;;;;;;;;;;;2.20;89.50;;;;;;5060160;28;19912;-95
2021/11/15 18:25:55;;;;;;;;;;;2.20;88.00;;;;;;5056956;28;20375;-94
2021/11/15 18:28:20;;;;;;;;;;;2.20;87.30;;;;;;5059174;28;19909;-95
2021/11/15 18:30:46;;;;;;;;;;;2.20;88.10;;;;;;5060879;28;20016;-96
2021/11/15 18:33:13;;;;;;;;;;;2.20;88.80;;;;;;5056871;28;19940;-94
2021/11/15 18:35:39;;;;;;;;;;;2.20;87.60;;;;;;5056007;28;20448;-96
2021/11/15 18:38:04;;;;;;;;;;;2.20;87.70;;;;;;5060984;28;20066;-95
2021/11/15 18:40:36;;;;;;;;;;;2.20;86.30;;;;;;5059265;28;19908;-96
2021/11/15 18:43:02;;;;;;;;;;;2.20;86.50;;;;;;5060987;28;19912;-95
2021/11/15 18:45:28;;;;;;;;;;;2.20;86.00;;;;;;5061292;28;19967;-96
2021/11/15 18:47:54;;;;;;;;;;;2.20;86.60;;;;;;5057441;28;19909;-96
2021/11/15 18:50:21;;;;;;;;;;;2.20;86.30;;;;;;5058140;28;19912;-94
2021/11/15 20:01:17;;;;;;;;;;;1.20;89.00;;;;;;5113318;27;20282;-94
2021/11/15 20:03:43;;;;;;;;;;;1.20;90.40;;;;;;5145603;27;19967;-93
